sensor_id;sensor_type;location;lat;lon;timestamp;pressure;altitude;pressure_sealevel;temperature;humidity
1401;BME280;46518;48.842;8.926;2022-10-18T00:01:09;98004.19;;;16.11;87.12
1401;BME280;46518;48.842;8.926;2022-10-18T00:03:39;98006.78;;;16.01;88.07
1401;BME280;46518;48.842;8.926;2022-10-18T00:06:07;98003.25;;;15.90;89.05
1401;BME280;46518;48.842;8.926;2022-10-18T00:08:36;98006.44;;;15.87;89.82
1401;BME280;46518;48.842;8.926;2022-10-18T00:11:05;98001.13;;;15.87;89.86
1401;BME280;46518;48.842;8.926;2022-10-18T00:13:39;98001.44;;;15.90;89.99
1401;BME280;46518;48.842;8.926;2022-10-18T00:16:12;98004.66;;;15.98;89.58
1401;BME280;46518;48.842;8.926;2022-10-18T00:18:41;98002.03;;;16.03;89.12
1401;BME280;46518;48.842;8.926;2022-10-18T00:21:11;97997.75;;;16.02;88.96
1401;BME280;46518;48.842;8.926;2022-10-18T00:23:42;98010.59;;;16.15;88.28
1401;BME280;46518;48.842;8.926;2022-10-18T00:26:12;98011.66;;;16.19;87.98
1401;BME280;46518;48.842;8.926;2022-10-18T00:28:44;98003.72;;;16.29;87.18
1401;BME280;46518;48.842;8.926;2022-10-18T00:31:28;97999.75;;;16.37;86.66
1401;BME280;46518;48.842;8.926;2022-10-18T00:33:59;98003.50;;;16.41;86.16
1401;BME280;46518;48.842;8.926;2022-10-18T00:36:29;97996.63;;;16.45;85.99
1401;BME280;46518;48.842;8.926;2022-10-18T00:38:57;98006.72;;;16.53;85.52
1401;BME280;46518;48.842;8.926;2022-10-18T00:41:27;98005.41;;;16.61;85.28
1401;BME280;46518;48.842;8.926;2022-10-18T00:43:58;97996.13;;;16.69;84.92
1401;BME280;46518;48.842;8.926;2022-10-18T00:46:28;98003.56;;;16.72;85.14
1401;BME280;46518;48.842;8.926;2022-10-18T00:49:01;98004.44;;;16.83;84.55
1401;BME280;46518;48.842;8.926;2022-10-18T00:51:46;98013.47;;;16.87;84.36
1401;BME280;46518;48.842;8.926;2022-10-18T00:54:15;98015.50;;;16.64;85.10
1401;BME280;46518;48.842;8.926;2022-10-18T00:56:45;98007.50;;;16.49;86.54
1401;BME280;46518;48.842;8.926;2022-10-18T00:59:14;98007.81;;;16.57;85.96
1401;BME280;46518;48.842;8.926;2022-10-18T01:01:43;98004.63;;;16.66;85.57
1401;BME280;46518;48.842;8.926;2022-10-18T01:04:13;98009.41;;;16.64;85.98
1401;BME280;46518;48.842;8.926;2022-10-18T01:06:49;98006.41;;;16.45;86.83
1401;BME280;46518;48.842;8.926;2022-10-18T01:09:27;98006.41;;;16.39;87.37
1401;BME280;46518;48.842;8.926;2022-10-18T01:12:08;98005.56;;;16.29;88.31
1401;BME280;46518;48.842;8.926;2022-10-18T01:14:44;98008.75;;;16.21;88.66
1401;BME280;46518;48.842;8.926;2022-10-18T01:17:19;98003.69;;;16.24;88.27
1401;BME280;46518;48.842;8.926;2022-10-18T01:20:17;98005.78;;;16.12;88.20
1401;BME280;46518;48.842;8.926;2022-10-18T01:22:54;98003.91;;;16.12;87.58
1401;BME280;46518;48.842;8.926;2022-10-18T01:25:35;98010.31;;;16.16;87.15
1401;BME280;46518;48.842;8.926;2022-10-18T01:28:21;97999.69;;;16.16;87.17
1401;BME280;46518;48.842;8.926;2022-10-18T01:30:58;98013.00;;;16.27;86.75
1401;BME280;46518;48.842;8.926;2022-10-18T01:33:32;98010.69;;;16.41;86.35
1401;BME280;46518;48.842;8.926;2022-10-18T01:36:06;98012.78;;;16.38;85.98
1401;BME280;46518;48.842;8.926;2022-10-18T01:38:37;98010.41;;;16.42;85.33
1401;BME280;46518;48.842;8.926;2022-10-18T01:41:07;98006.41;;;16.39;85.99
1401;BME280;46518;48.842;8.926;2022-10-18T01:43:42;98013.31;;;16.35;85.83
1401;BME280;46518;48.842;8.926;2022-10-18T01:46:16;98008.78;;;16.36;85.25
1401;BME280;46518;48.842;8.926;2022-10-18T01:48:46;98007.50;;;16.44;84.85
1401;BME280;46518;48.842;8.926;2022-10-18T01:51:17;97997.13;;;16.52;84.12
1401;BME280;46518;48.842;8.926;2022-10-18T01:53:45;98001.66;;;16.57;83.76
1401;BME280;46518;48.842;8.926;2022-10-18T01:56:21;98002.50;;;16.63;82.95
1401;BME280;46518;48.842;8.926;2022-10-18T01:59:02;97998.03;;;16.78;82.53
1401;BME280;46518;48.842;8.926;2022-10-18T02:01:40;98003.91;;;16.80;82.19
1401;BME280;46518;48.842;8.926;2022-10-18T02:04:18;97999.13;;;16.88;81.85
1401;BME280;46518;48.842;8.926;2022-10-18T02:06:54;97994.59;;;16.88;80.98
1401;BME280;46518;48.842;8.926;2022-10-18T02:09:30;97986.88;;;16.87;80.69
1401;BME280;46518;48.842;8.926;2022-10-18T02:12:02;97989.00;;;16.90;80.37
1401;BME280;46518;48.842;8.926;2022-10-18T02:14:32;97981.84;;;16.85;80.01
1401;BME280;46518;48.842;8.926;2022-10-18T02:17:04;97981.31;;;16.93;79.44
1401;BME280;46518;48.842;8.926;2022-10-18T02:19:37;97987.72;;;17.02;78.66
1401;BME280;46518;48.842;8.926;2022-10-18T02:22:10;97981.31;;;17.14;77.97
1401;BME280;46518;48.842;8.926;2022-10-18T02:24:43;97985.84;;;17.18;77.70
1401;BME280;46518;48.842;8.926;2022-10-18T02:27:13;97974.66;;;17.16;77.92
1401;BME280;46518;48.842;8.926;2022-10-18T02:29:41;97972.78;;;17.32;76.75
1401;BME280;46518;48.842;8.926;2022-10-18T02:32:17;97962.16;;;17.37;75.81
1401;BME280;46518;48.842;8.926;2022-10-18T02:34:49;97961.34;;;17.21;75.41
1401;BME280;46518;48.842;8.926;2022-10-18T02:37:20;97959.00;;;17.15;75.77
1401;BME280;46518;48.842;8.926;2022-10-18T02:39:49;97966.41;;;17.28;75.91
1401;BME280;46518;48.842;8.926;2022-10-18T02:42:18;97960.28;;;17.38;75.11
1401;BME280;46518;48.842;8.926;2022-10-18T02:44:46;97966.41;;;17.43;74.89
1401;BME280;46518;48.842;8.926;2022-10-18T02:47:15;97956.28;;;17.45;74.50
1401;BME280;46518;48.842;8.926;2022-10-18T02:49:43;97969.28;;;17.67;74.09
1401;BME280;46518;48.842;8.926;2022-10-18T02:52:11;97970.59;;;17.75;73.53
1401;BME280;46518;48.842;8.926;2022-10-18T02:54:40;97967.97;;;17.60;73.62
1401;BME280;46518;48.842;8.926;2022-10-18T02:57:08;97967.16;;;17.54;74.02
1401;BME280;46518;48.842;8.926;2022-10-18T02:59:36;97958.94;;;17.45;74.11
1401;BME280;46518;48.842;8.926;2022-10-18T03:02:04;97966.41;;;17.38;74.02
1401;BME280;46518;48.842;8.926;2022-10-18T03:04:34;97974.91;;;17.40;73.93
1401;BME280;46518;48.842;8.926;2022-10-18T03:07:02;97962.16;;;17.42;73.70
1401;BME280;46518;48.842;8.926;2022-10-18T03:09:30;97975.69;;;17.51;73.78
1401;BME280;46518;48.842;8.926;2022-10-18T03:11:59;97967.72;;;17.46;74.26
1401;BME280;46518;48.842;8.926;2022-10-18T03:14:27;97967.72;;;17.46;74.56
1401;BME280;46518;48.842;8.926;2022-10-18T03:16:55;97971.47;;;17.35;74.58
1401;BME280;46518;48.842;8.926;2022-10-18T03:19:23;97963.78;;;17.13;75.61
1401;BME280;46518;48.842;8.926;2022-10-18T03:21:52;97970.41;;;17.05;76.43
1401;BME280;46518;48.842;8.926;2022-10-18T03:24:20;97974.13;;;17.09;75.90
1401;BME280;46518;48.842;8.926;2022-10-18T03:26:48;97972.00;;;17.16;75.37
1401;BME280;46518;48.842;8.926;2022-10-18T03:29:16;97968.03;;;16.98;75.89
1401;BME280;46518;48.842;8.926;2022-10-18T03:31:44;97965.34;;;16.88;76.68
1401;BME280;46518;48.842;8.926;2022-10-18T03:34:12;97965.56;;;16.76;77.30
1401;BME280;46518;48.842;8.926;2022-10-18T03:36:41;97962.63;;;16.63;77.97
1401;BME280;46518;48.842;8.926;2022-10-18T03:39:11;97959.69;;;16.54;78.14
1401;BME280;46518;48.842;8.926;2022-10-18T03:41:39;97956.47;;;16.42;78.74
1401;BME280;46518;48.842;8.926;2022-10-18T03:44:07;97953.25;;;16.34;79.37
1401;BME280;46518;48.842;8.926;2022-10-18T03:46:35;97959.88;;;16.27;79.73
1401;BME280;46518;48.842;8.926;2022-10-18T03:49:03;97965.44;;;16.20;80.16
1401;BME280;46518;48.842;8.926;2022-10-18T03:51:31;97952.19;;;16.20;80.04
1401;BME280;46518;48.842;8.926;2022-10-18T03:53:59;97965.97;;;16.22;79.72
1401;BME280;46518;48.842;8.926;2022-10-18T03:56:29;97964.91;;;16.18;79.69
1401;BME280;46518;48.842;8.926;2022-10-18T03:58:57;97974.47;;;16.24;79.83
1401;BME280;46518;48.842;8.926;2022-10-18T04:01:25;97964.94;;;16.28;79.84
1401;BME280;46518;48.842;8.926;2022-10-18T04:03:53;97977.16;;;16.29;79.33
1401;BME280;46518;48.842;8.926;2022-10-18T04:06:21;97973.19;;;16.42;78.96
1401;BME280;46518;48.842;8.926;2022-10-18T04:08:49;97972.97;;;16.49;78.85
1401;BME280;46518;48.842;8.926;2022-10-18T04:11:17;97977.28;;;16.70;77.94
1401;BME280;46518;48.842;8.926;2022-10-18T04:13:47;97983.63;;;16.64;77.98
1401;BME280;46518;48.842;8.926;2022-10-18T04:16:15;97989.47;;;16.66;77.55
1401;BME280;46518;48.842;8.926;2022-10-18T04:18:47;97989.50;;;16.71;77.88
1401;BME280;46518;48.842;8.926;2022-10-18T04:21:15;97983.19;;;16.88;77.57
1401;BME280;46518;48.842;8.926;2022-10-18T04:23:45;97978.34;;;16.79;77.13
1401;BME280;46518;48.842;8.926;2022-10-18T04:26:14;97990.63;;;16.96;76.92
1401;BME280;46518;48.842;8.926;2022-10-18T04:28:43;97989.28;;;16.98;76.58
1401;BME280;46518;48.842;8.926;2022-10-18T04:31:13;97995.16;;;16.95;76.88
1401;BME280;46518;48.842;8.926;2022-10-18T04:33:41;97999.63;;;16.90;77.13
1401;BME280;46518;48.842;8.926;2022-10-18T04:36:09;97999.91;;;16.78;77.75
1401;BME280;46518;48.842;8.926;2022-10-18T04:38:37;97998.53;;;16.75;78.09
1401;BME280;46518;48.842;8.926;2022-10-18T04:41:05;98000.66;;;16.68;78.22
1401;BME280;46518;48.842;8.926;2022-10-18T04:43:34;97999.31;;;16.66;78.22
1401;BME280;46518;48.842;8.926;2022-10-18T04:46:02;97998.03;;;16.84;77.74
1401;BME280;46518;48.842;8.926;2022-10-18T04:48:31;98002.28;;;16.85;77.11
1401;BME280;46518;48.842;8.926;2022-10-18T04:51:00;98004.16;;;16.94;76.71
1401;BME280;46518;48.842;8.926;2022-10-18T04:53:28;98010.56;;;17.03;76.29
1401;BME280;46518;48.842;8.926;2022-10-18T04:55:57;98000.72;;;17.04;76.22
1401;BME280;46518;48.842;8.926;2022-10-18T04:58:27;98005.00;;;17.05;76.31
1401;BME280;46518;48.842;8.926;2022-10-18T05:00:55;98003.13;;;17.06;76.02
1401;BME280;46518;48.842;8.926;2022-10-18T05:03:23;98002.59;;;17.09;75.82
1401;BME280;46518;48.842;8.926;2022-10-18T05:05:52;98008.69;;;17.14;75.72
1401;BME280;46518;48.842;8.926;2022-10-18T05:08:28;98002.84;;;17.07;75.77
1401;BME280;46518;48.842;8.926;2022-10-18T05:10:56;98002.59;;;17.03;75.80
1401;BME280;46518;48.842;8.926;2022-10-18T05:13:24;97998.59;;;16.96;75.44
1401;BME280;46518;48.842;8.926;2022-10-18T05:15:53;97999.91;;;16.88;75.70
1401;BME280;46518;48.842;8.926;2022-10-18T05:18:21;98003.13;;;16.85;75.93
1401;BME280;46518;48.842;8.926;2022-10-18T05:20:49;98005.44;;;16.71;76.61
1401;BME280;46518;48.842;8.926;2022-10-18T05:23:18;98008.34;;;16.65;76.77
1401;BME280;46518;48.842;8.926;2022-10-18T05:25:46;97999.00;;;16.47;77.56
1401;BME280;46518;48.842;8.926;2022-10-18T05:28:14;97992.34;;;16.49;77.63
1401;BME280;46518;48.842;8.926;2022-10-18T05:31:03;98003.53;;;16.56;77.63
1401;BME280;46518;48.842;8.926;2022-10-18T05:33:32;97990.22;;;16.46;78.45
1401;BME280;46518;48.842;8.926;2022-10-18T05:36:00;97999.31;;;16.60;78.67
1401;BME280;46518;48.842;8.926;2022-10-18T05:38:29;97995.88;;;16.65;78.68
1401;BME280;46518;48.842;8.926;2022-10-18T05:40:58;97999.56;;;16.64;78.53
1401;BME280;46518;48.842;8.926;2022-10-18T05:43:26;97999.28;;;16.55;78.65
1401;BME280;46518;48.842;8.926;2022-10-18T05:45:55;97985.75;;;16.62;78.60
1401;BME280;46518;48.842;8.926;2022-10-18T05:48:23;97999.03;;;16.72;78.18
1401;BME280;46518;48.842;8.926;2022-10-18T05:50:52;97996.66;;;16.71;77.81
1401;BME280;46518;48.842;8.926;2022-10-18T05:53:20;97992.66;;;16.53;78.84
1401;BME280;46518;48.842;8.926;2022-10-18T05:56:05;97993.72;;;16.67;78.81
1401;BME280;46518;48.842;8.926;2022-10-18T05:58:33;97995.84;;;16.60;79.66
1401;BME280;46518;48.842;8.926;2022-10-18T06:01:03;98004.38;;;16.72;79.83
1401;BME280;46518;48.842;8.926;2022-10-18T06:03:32;98002.03;;;16.81;79.56
1401;BME280;46518;48.842;8.926;2022-10-18T06:06:00;98009.47;;;16.89;79.61
1401;BME280;46518;48.842;8.926;2022-10-18T06:08:28;98003.38;;;16.94;79.10
1401;BME280;46518;48.842;8.926;2022-10-18T06:10:57;97997.50;;;16.87;78.90
1401;BME280;46518;48.842;8.926;2022-10-18T06:13:26;98001.78;;;17.03;78.41
1401;BME280;46518;48.842;8.926;2022-10-18T06:15:58;97999.38;;;16.91;78.69
1401;BME280;46518;48.842;8.926;2022-10-18T06:18:26;98004.16;;;16.94;78.77
1401;BME280;46518;48.842;8.926;2022-10-18T06:20:56;98010.31;;;17.05;78.36
1401;BME280;46518;48.842;8.926;2022-10-18T06:23:25;98013.47;;;17.07;78.29
1401;BME280;46518;48.842;8.926;2022-10-18T06:25:57;98002.34;;;17.05;79.00
1401;BME280;46518;48.842;8.926;2022-10-18T06:28:27;98014.84;;;17.15;78.09
1401;BME280;46518;48.842;8.926;2022-10-18T06:30:56;98009.25;;;17.27;77.72
1401;BME280;46518;48.842;8.926;2022-10-18T06:33:31;98008.69;;;17.14;77.74
1401;BME280;46518;48.842;8.926;2022-10-18T06:36:02;98011.09;;;17.11;78.17
1401;BME280;46518;48.842;8.926;2022-10-18T06:38:31;98012.44;;;17.18;77.89
1401;BME280;46518;48.842;8.926;2022-10-18T06:40:59;98014.03;;;17.24;77.48
1401;BME280;46518;48.842;8.926;2022-10-18T06:43:29;98012.72;;;17.37;77.08
1401;BME280;46518;48.842;8.926;2022-10-18T06:45:57;98009.25;;;17.21;77.28
1401;BME280;46518;48.842;8.926;2022-10-18T06:48:26;98009.78;;;17.13;78.15
1401;BME280;46518;48.842;8.926;2022-10-18T06:50:56;98015.09;;;17.03;78.65
1401;BME280;46518;48.842;8.926;2022-10-18T06:53:26;98018.31;;;17.15;78.60
1401;BME280;46518;48.842;8.926;2022-10-18T06:55:58;98018.00;;;17.32;78.12
1401;BME280;46518;48.842;8.926;2022-10-18T06:58:28;98016.41;;;17.41;77.70
1401;BME280;46518;48.842;8.926;2022-10-18T07:00:57;98022.25;;;17.59;77.09
1401;BME280;46518;48.842;8.926;2022-10-18T07:03:25;98022.53;;;17.62;76.97
1401;BME280;46518;48.842;8.926;2022-10-18T07:05:53;98027.06;;;17.57;77.06
1401;BME280;46518;48.842;8.926;2022-10-18T07:08:26;98036.66;;;17.53;77.08
1401;BME280;46518;48.842;8.926;2022-10-18T07:10:55;98030.53;;;17.57;77.19
1401;BME280;46518;48.842;8.926;2022-10-18T07:13:23;98046.22;;;17.59;76.91
1401;BME280;46518;48.842;8.926;2022-10-18T07:16:02;98040.63;;;17.71;76.65
1401;BME280;46518;48.842;8.926;2022-10-18T07:18:32;98037.19;;;17.65;76.47
1401;BME280;46518;48.842;8.926;2022-10-18T07:21:01;98043.03;;;17.82;76.46
1401;BME280;46518;48.842;8.926;2022-10-18T07:23:33;98032.09;;;17.89;75.88
1401;BME280;46518;48.842;8.926;2022-10-18T07:26:05;98032.91;;;17.95;75.43
1401;BME280;46518;48.842;8.926;2022-10-18T07:28:38;98029.97;;;17.91;76.05
1401;BME280;46518;48.842;8.926;2022-10-18T07:31:10;98036.84;;;18.07;76.14
1401;BME280;46518;48.842;8.926;2022-10-18T07:33:38;98037.09;;;18.11;75.63
1401;BME280;46518;48.842;8.926;2022-10-18T07:36:10;98028.34;;;18.05;75.17
1401;BME280;46518;48.842;8.926;2022-10-18T07:38:38;98029.38;;;18.20;74.96
1401;BME280;46518;48.842;8.926;2022-10-18T07:41:09;98036.75;;;18.33;74.31
1401;BME280;46518;48.842;8.926;2022-10-18T07:43:42;98033.81;;;18.29;74.26
1401;BME280;46518;48.842;8.926;2022-10-18T07:46:14;98045.25;;;18.40;74.57
1401;BME280;46518;48.842;8.926;2022-10-18T07:48:42;98045.50;;;18.44;75.32
1401;BME280;46518;48.842;8.926;2022-10-18T07:51:10;98049.47;;;18.51;75.30
1401;BME280;46518;48.842;8.926;2022-10-18T07:53:38;98049.47;;;18.51;74.08
1401;BME280;46518;48.842;8.926;2022-10-18T07:56:08;98050.25;;;18.57;74.26
1401;BME280;46518;48.842;8.926;2022-10-18T07:58:42;98052.09;;;18.62;73.60
1401;BME280;46518;48.842;8.926;2022-10-18T08:01:13;98052.59;;;18.69;73.71
1401;BME280;46518;48.842;8.926;2022-10-18T08:03:42;98059.03;;;18.63;73.84
1401;BME280;46518;48.842;8.926;2022-10-18T08:06:12;98067.81;;;18.63;74.25
1401;BME280;46518;48.842;8.926;2022-10-18T08:08:41;98064.06;;;18.64;75.36
1401;BME280;46518;48.842;8.926;2022-10-18T08:11:11;98067.28;;;18.61;75.80
1401;BME280;46518;48.842;8.926;2022-10-18T08:13:40;98077.16;;;18.61;75.97
1401;BME280;46518;48.842;8.926;2022-10-18T08:16:10;98071.06;;;18.55;75.84
1401;BME280;46518;48.842;8.926;2022-10-18T08:18:40;98074.53;;;18.56;76.13
1401;BME280;46518;48.842;8.926;2022-10-18T08:21:11;98081.47;;;18.51;76.40
1401;BME280;46518;48.842;8.926;2022-10-18T08:23:40;98082.50;;;18.61;75.72
1401;BME280;46518;48.842;8.926;2022-10-18T08:26:10;98081.72;;;18.55;75.80
1401;BME280;46518;48.842;8.926;2022-10-18T08:28:39;98071.28;;;18.64;75.90
1401;BME280;46518;48.842;8.926;2022-10-18T08:31:24;98069.41;;;18.64;76.21
1401;BME280;46518;48.842;8.926;2022-10-18T08:33:54;98071.78;;;18.71;76.57
1401;BME280;46518;48.842;8.926;2022-10-18T08:36:23;98080.31;;;18.78;75.33
1401;BME280;46518;48.842;8.926;2022-10-18T08:38:52;98074.97;;;18.73;76.84
1401;BME280;46518;48.842;8.926;2022-10-18T08:41:31;98074.72;;;18.80;76.36
1401;BME280;46518;48.842;8.926;2022-10-18T08:44:12;98082.94;;;18.88;76.15
1401;BME280;46518;48.842;8.926;2022-10-18T08:47:03;98080.97;;;18.99;76.19
1401;BME280;46518;48.842;8.926;2022-10-18T08:49:36;98082.81;;;19.09;75.96
1401;BME280;46518;48.842;8.926;2022-10-18T08:52:15;98093.16;;;19.15;74.08
1401;BME280;46518;48.842;8.926;2022-10-18T08:54:52;98103.00;;;19.25;73.54
1401;BME280;46518;48.842;8.926;2022-10-18T08:57:22;98097.06;;;19.33;73.04
1401;BME280;46518;48.842;8.926;2022-10-18T08:59:50;98103.25;;;19.24;72.54
1401;BME280;46518;48.842;8.926;2022-10-18T09:02:33;98103.59;;;19.17;72.51
1401;BME280;46518;48.842;8.926;2022-10-18T09:05:13;98102.78;;;19.11;73.13
1401;BME280;46518;48.842;8.926;2022-10-18T09:08:02;98103.41;;;18.98;73.48
1401;BME280;46518;48.842;8.926;2022-10-18T09:10:42;98097.03;;;18.94;73.78
1401;BME280;46518;48.842;8.926;2022-10-18T09:13:24;98102.13;;;18.90;73.66
1401;BME280;46518;48.842;8.926;2022-10-18T09:15:58;98104.81;;;18.85;73.60
1401;BME280;46518;48.842;8.926;2022-10-18T09:18:38;98093.31;;;18.90;74.27
1401;BME280;46518;48.842;8.926;2022-10-18T09:21:19;98097.78;;;19.05;74.54
1401;BME280;46518;48.842;8.926;2022-10-18T09:23:53;98103.06;;;19.15;74.39
1401;BME280;46518;48.842;8.926;2022-10-18T09:26:30;98114.69;;;19.29;74.17
1401;BME280;46518;48.842;8.926;2022-10-18T09:29:09;98108.47;;;19.39;73.87
1401;BME280;46518;48.842;8.926;2022-10-18T09:31:46;98103.63;;;19.46;73.82
1401;BME280;46518;48.842;8.926;2022-10-18T09:34:25;98100.69;;;19.48;73.95
1401;BME280;46518;48.842;8.926;2022-10-18T09:36:56;98102.19;;;19.59;74.11
1401;BME280;46518;48.842;8.926;2022-10-18T09:39:29;98099.47;;;19.64;74.04
1401;BME280;46518;48.842;8.926;2022-10-18T09:42:00;98094.38;;;19.73;74.11
1401;BME280;46518;48.842;8.926;2022-10-18T09:44:43;98094.81;;;19.85;73.56
1401;BME280;46518;48.842;8.926;2022-10-18T09:47:17;98100.63;;;19.92;73.27
1401;BME280;46518;48.842;8.926;2022-10-18T09:49:49;98091.38;;;19.79;75.33
1401;BME280;46518;48.842;8.926;2022-10-18T09:52:24;98093.41;;;19.93;74.49
1401;BME280;46518;48.842;8.926;2022-10-18T09:54:57;98103.94;;;20.08;73.24
1401;BME280;46518;48.842;8.926;2022-10-18T09:57:32;98098.22;;;19.91;74.87
1401;BME280;46518;48.842;8.926;2022-10-18T10:00:03;98097.44;;;19.90;76.09
1401;BME280;46518;48.842;8.926;2022-10-18T10:02:31;98096.53;;;20.00;74.21
1401;BME280;46518;48.842;8.926;2022-10-18T10:04:59;98096.44;;;20.10;72.83
1401;BME280;46518;48.842;8.926;2022-10-18T10:07:33;98108.09;;;20.19;72.86
1401;BME280;46518;48.842;8.926;2022-10-18T10:10:06;98101.94;;;20.19;72.13
1401;BME280;46518;48.842;8.926;2022-10-18T10:12:37;98094.16;;;20.22;72.73
1401;BME280;46518;48.842;8.926;2022-10-18T10:15:09;98095.88;;;20.37;72.75
1401;BME280;46518;48.842;8.926;2022-10-18T10:17:39;98101.38;;;20.46;73.67
1401;BME280;46518;48.842;8.926;2022-10-18T10:20:22;98107.72;;;20.55;71.06
1401;BME280;46518;48.842;8.926;2022-10-18T10:23:06;98114.75;;;20.46;71.04
1401;BME280;46518;48.842;8.926;2022-10-18T10:25:36;98101.78;;;20.34;70.45
1401;BME280;46518;48.842;8.926;2022-10-18T10:28:10;98104.22;;;20.31;70.24
1401;BME280;46518;48.842;8.926;2022-10-18T10:30:40;98108.66;;;20.16;71.62
1401;BME280;46518;48.842;8.926;2022-10-18T10:33:30;98107.00;;;20.20;70.21
1401;BME280;46518;48.842;8.926;2022-10-18T10:36:00;98095.97;;;20.03;71.37
1401;BME280;46518;48.842;8.926;2022-10-18T10:38:32;98096.09;;;20.17;71.36
1401;BME280;46518;48.842;8.926;2022-10-18T10:41:00;98095.38;;;20.35;71.93
1401;BME280;46518;48.842;8.926;2022-10-18T10:43:30;98101.09;;;20.23;70.82
1401;BME280;46518;48.842;8.926;2022-10-18T10:46:06;98093.81;;;20.53;72.45
1401;BME280;46518;48.842;8.926;2022-10-18T10:48:41;98088.25;;;20.50;70.80
1401;BME280;46518;48.842;8.926;2022-10-18T10:51:15;98093.25;;;20.56;70.03
1401;BME280;46518;48.842;8.926;2022-10-18T10:53:48;98090.97;;;20.68;68.31
1401;BME280;46518;48.842;8.926;2022-10-18T10:56:23;98097.84;;;20.51;69.40
1401;BME280;46518;48.842;8.926;2022-10-18T10:59:14;98095.31;;;20.64;68.64
1401;BME280;46518;48.842;8.926;2022-10-18T11:01:43;98094.50;;;20.64;67.78
1401;BME280;46518;48.842;8.926;2022-10-18T11:04:25;98098.56;;;20.61;69.79
1401;BME280;46518;48.842;8.926;2022-10-18T11:07:02;98086.66;;;20.73;68.45
1401;BME280;46518;48.842;8.926;2022-10-18T11:09:50;98088.97;;;20.98;69.67
1401;BME280;46518;48.842;8.926;2022-10-18T11:12:25;98087.16;;;20.94;68.74
1401;BME280;46518;48.842;8.926;2022-10-18T11:15:02;98084.81;;;20.92;66.23
1401;BME280;46518;48.842;8.926;2022-10-18T11:17:41;98083.19;;;20.91;66.93
1401;BME280;46518;48.842;8.926;2022-10-18T11:20:21;98087.97;;;20.94;65.90
1401;BME280;46518;48.842;8.926;2022-10-18T11:23:01;98087.91;;;20.99;67.62
1401;BME280;46518;48.842;8.926;2022-10-18T11:28:33;98083.19;;;20.91;66.17
1401;BME280;46518;48.842;8.926;2022-10-18T11:31:11;98093.59;;;21.11;67.17
1401;BME280;46518;48.842;8.926;2022-10-18T11:33:50;98086.16;;;21.08;65.01
1401;BME280;46518;48.842;8.926;2022-10-18T11:36:40;98094.00;;;21.05;65.09
1401;BME280;46518;48.842;8.926;2022-10-18T11:39:35;98087.84;;;21.04;65.70
1401;BME280;46518;48.842;8.926;2022-10-18T11:42:17;98100.50;;;21.18;66.99
1401;BME280;46518;48.842;8.926;2022-10-18T11:44:56;98098.47;;;21.09;67.72
1401;BME280;46518;48.842;8.926;2022-10-18T11:47:36;98094.97;;;21.09;67.89
1401;BME280;46518;48.842;8.926;2022-10-18T11:50:15;98090.59;;;20.99;67.04
1401;BME280;46518;48.842;8.926;2022-10-18T11:53:02;98092.31;;;20.90;67.62
1401;BME280;46518;48.842;8.926;2022-10-18T11:55:45;98089.59;;;20.71;68.40
1401;BME280;46518;48.842;8.926;2022-10-18T11:58:28;98096.91;;;20.65;68.47
1401;BME280;46518;48.842;8.926;2022-10-18T12:01:05;98098.59;;;20.80;69.40
1401;BME280;46518;48.842;8.926;2022-10-18T12:03:49;98099.78;;;20.69;67.26
1401;BME280;46518;48.842;8.926;2022-10-18T12:06:23;98096.56;;;20.48;68.23
1401;BME280;46518;48.842;8.926;2022-10-18T12:08:54;98097.06;;;20.50;68.43
1401;BME280;46518;48.842;8.926;2022-10-18T12:11:28;98090.81;;;20.36;68.93
1401;BME280;46518;48.842;8.926;2022-10-18T12:14:00;98089.50;;;20.33;68.96
1401;BME280;46518;48.842;8.926;2022-10-18T12:16:32;98084.03;;;20.43;71.65
1401;BME280;46518;48.842;8.926;2022-10-18T12:19:19;98080.44;;;20.53;72.12
1401;BME280;46518;48.842;8.926;2022-10-18T12:21:54;98078.09;;;20.46;72.52
1401;BME280;46518;48.842;8.926;2022-10-18T12:24:24;98072.69;;;20.57;74.11
1401;BME280;46518;48.842;8.926;2022-10-18T12:26:57;98084.03;;;20.43;72.19
1401;BME280;46518;48.842;8.926;2022-10-18T12:29:30;98080.94;;;20.60;72.66
1401;BME280;46518;48.842;8.926;2022-10-18T12:32:07;98086.22;;;20.65;72.07
1401;BME280;46518;48.842;8.926;2022-10-18T12:34:40;98076.09;;;20.62;73.38
1401;BME280;46518;48.842;8.926;2022-10-18T12:37:20;98086.88;;;20.52;72.07
1401;BME280;46518;48.842;8.926;2022-10-18T12:39:54;98094.75;;;20.67;72.81
1401;BME280;46518;48.842;8.926;2022-10-18T12:42:46;98094.81;;;20.62;71.92
1401;BME280;46518;48.842;8.926;2022-10-18T12:45:26;98087.56;;;20.39;68.30
1401;BME280;46518;48.842;8.926;2022-10-18T12:47:58;98083.38;;;20.57;72.14
1401;BME280;46518;48.842;8.926;2022-10-18T12:50:30;98086.22;;;20.65;68.96
1401;BME280;46518;48.842;8.926;2022-10-18T12:53:06;98071.38;;;20.49;69.56
1401;BME280;46518;48.842;8.926;2022-10-18T12:55:35;98074.47;;;20.61;71.12
1401;BME280;46518;48.842;8.926;2022-10-18T12:58:25;98083.91;;;20.54;68.60
1401;BME280;46518;48.842;8.926;2022-10-18T13:01:13;98074.47;;;20.61;69.45
1401;BME280;46518;48.842;8.926;2022-10-18T13:03:59;98071.91;;;20.75;70.02
1401;BME280;46518;48.842;8.926;2022-10-18T13:09:37;98077.41;;;20.84;71.51
1401;BME280;46518;48.842;8.926;2022-10-18T13:15:38;98072.56;;;21.05;67.89
1401;BME280;46518;48.842;8.926;2022-10-18T13:18:17;98069.09;;;20.85;68.37
1401;BME280;46518;48.842;8.926;2022-10-18T13:20:54;98075.31;;;20.81;68.09
1401;BME280;46518;48.842;8.926;2022-10-18T13:23:34;98066.41;;;20.85;69.57
1401;BME280;46518;48.842;8.926;2022-10-18T13:26:16;98063.31;;;20.97;70.75
1401;BME280;46518;48.842;8.926;2022-10-18T13:28:51;98060.63;;;20.97;68.03
1401;BME280;46518;48.842;8.926;2022-10-18T13:31:29;98068.09;;;21.00;68.24
1401;BME280;46518;48.842;8.926;2022-10-18T13:34:25;98072.34;;;21.01;67.93
1401;BME280;46518;48.842;8.926;2022-10-18T13:37:01;98068.16;;;20.95;68.23
1401;BME280;46518;48.842;8.926;2022-10-18T13:39:31;98068.31;;;20.85;69.25
1401;BME280;46518;48.842;8.926;2022-10-18T13:42:27;98066.84;;;20.74;68.59
1401;BME280;46518;48.842;8.926;2022-10-18T13:45:43;98070.75;;;20.62;68.95
1401;BME280;46518;48.842;8.926;2022-10-18T13:48:46;98071.97;;;20.89;69.74
1401;BME280;46518;48.842;8.926;2022-10-18T13:51:46;98072.03;;;20.84;69.08